createdAt,value
2018-02-07T00:02:22.744Z,88.13
2018-02-07T00:04:50.542Z,88.57
2018-02-07T00:07:19.398Z,88.42
2018-02-07T00:09:48.538Z,88.24
2018-02-07T00:12:17.214Z,88.37
2018-02-07T00:14:51.320Z,88.60
2018-02-07T00:17:20.316Z,88.35
2018-02-07T00:19:51.564Z,88.43
2018-02-07T00:22:23.278Z,88.45
2018-02-07T00:24:51.396Z,88.32
2018-02-07T00:27:25.177Z,88.84
2018-02-07T00:29:53.749Z,89.35
2018-02-07T00:32:22.982Z,89.33
2018-02-07T00:34:52.430Z,89.84
2018-02-07T00:37:29.093Z,89.26
2018-02-07T00:39:57.115Z,89.08
2018-02-07T00:42:27.934Z,89.56
2018-02-07T00:44:55.903Z,89.83
2018-02-07T00:47:23.792Z,89.64
2018-02-07T00:49:53.229Z,89.66
2018-02-07T00:52:21.052Z,89.77
2018-02-07T00:54:48.907Z,89.75
2018-02-07T00:57:16.865Z,89.20
2018-02-07T00:59:45.803Z,89.42
2018-02-07T01:02:13.876Z,89.91
2018-02-07T01:04:47.606Z,90.19
2018-02-07T01:07:22.719Z,89.90
2018-02-07T01:09:50.787Z,89.57
2018-02-07T01:12:19.537Z,89.38
2018-02-07T01:14:48.355Z,89.52
2018-02-07T01:17:17.166Z,89.37
2018-02-07T01:19:47.305Z,88.47
2018-02-07T01:22:16.929Z,87.84
2018-02-07T01:24:45.581Z,87.43
2018-02-07T01:27:13.537Z,86.91
2018-02-07T01:29:41.605Z,86.95
2018-02-07T01:32:10.091Z,87.45
2018-02-07T01:34:38.214Z,88.33
2018-02-07T01:37:09.515Z,88.55
2018-02-07T01:39:37.690Z,88.49
2018-02-07T01:42:07.401Z,88.60
2018-02-07T01:44:35.878Z,89.64
2018-02-07T01:47:03.652Z,90.75
2018-02-07T01:49:31.711Z,90.65
2018-02-07T01:52:00.202Z,90.30
2018-02-07T01:54:28.246Z,90.24
2018-02-07T01:56:56.913Z,89.86
2018-02-07T01:59:25.505Z,88.32
2018-02-07T02:01:54.176Z,87.28
2018-02-07T02:04:23.061Z,86.10
2018-02-07T02:06:52.684Z,86.23
2018-02-07T02:09:21.511Z,86.58
2018-02-07T02:11:50.265Z,86.60
2018-02-07T02:14:18.088Z,87.54
2018-02-07T02:16:48.043Z,88.16
2018-02-07T02:19:16.155Z,89.74
2018-02-07T02:21:47.802Z,89.60
2018-02-07T02:24:16.498Z,89.49
2018-02-07T02:26:49.857Z,88.17
2018-02-07T02:29:18.502Z,88.36
2018-02-07T02:31:48.475Z,88.23
2018-02-07T02:34:21.616Z,87.54
2018-02-07T02:36:52.380Z,88.14
2018-02-07T02:39:23.241Z,88.31
2018-02-07T02:41:54.888Z,87.93
2018-02-07T02:44:27.705Z,87.41
2018-02-07T02:52:19.001Z,88.37
2018-02-07T02:54:51.937Z,88.46
2018-02-07T02:57:28.136Z,88.93
2018-02-07T03:12:37.256Z,89.06
2018-02-07T03:15:08.249Z,89.07
2018-02-07T03:17:43.887Z,88.89
2018-02-07T03:20:26.342Z,89.07
2018-02-07T03:23:23.645Z,88.55
2018-02-07T03:25:53.389Z,89.10
2018-02-07T03:31:18.198Z,88.88
2018-02-07T03:33:48.717Z,88.45
2018-02-07T03:36:21.066Z,88.18
2018-02-07T03:44:28.786Z,88.64
2018-02-07T03:47:02.849Z,87.91
2018-02-07T03:52:16.232Z,88.32
2018-02-07T03:54:54.078Z,87.80
2018-02-07T03:57:37.890Z,88.39
2018-02-07T04:00:12.494Z,89.86
2018-02-07T04:02:52.371Z,89.52
2018-02-07T04:06:09.359Z,88.99
2018-02-07T04:18:00.476Z,91.05
2018-02-07T04:20:30.015Z,90.76
2018-02-07T04:30:40.028Z,87.67
2018-02-07T04:33:13.094Z,87.99
2018-02-07T04:35:43.658Z,88.52
2018-02-07T04:38:15.475Z,88.35
2018-02-07T04:40:47.125Z,87.98
2018-02-07T04:43:32.834Z,88.06
2018-02-07T04:46:04.334Z,88.26
2018-02-07T04:48:42.240Z,88.07
2018-02-07T04:51:11.697Z,88.26
2018-02-07T04:53:44.476Z,88.30
2018-02-07T04:56:18.488Z,88.54
2018-02-07T04:58:48.856Z,88.98
2018-02-07T05:01:18.725Z,88.35
2018-02-07T05:03:52.638Z,87.89
2018-02-07T05:06:23.738Z,87.50
2018-02-07T05:08:54.879Z,88.25
2018-02-07T05:11:28.051Z,90.02
2018-02-07T05:14:09.460Z,90.18
2018-02-07T05:16:41.191Z,90.00
2018-02-07T05:19:09.744Z,89.48
2018-02-07T05:21:37.712Z,89.09
2018-02-07T05:24:06.190Z,89.26
2018-02-07T05:26:34.199Z,88.87
2018-02-07T05:29:02.150Z,88.60
2018-02-07T05:31:32.673Z,89.36
2018-02-07T05:34:01.358Z,90.10
2018-02-07T05:36:29.124Z,90.74
2018-02-07T05:38:57.196Z,90.68
2018-02-07T05:41:26.051Z,90.99
2018-02-07T05:43:54.170Z,91.52
2018-02-07T05:46:22.027Z,91.94
2018-02-07T05:48:50.086Z,91.96
2018-02-07T05:51:18.158Z,91.92
2018-02-07T05:53:47.153Z,91.65
2018-02-07T05:56:16.042Z,92.21
2018-02-07T05:58:45.015Z,93.32
2018-02-07T06:01:13.108Z,92.79
2018-02-07T06:03:41.103Z,92.59
2018-02-07T06:06:08.917Z,91.47
2018-02-07T06:08:36.829Z,91.63
2018-02-07T06:11:04.883Z,92.53
2018-02-07T06:13:32.776Z,92.24
2018-02-07T06:16:00.683Z,91.95
2018-02-07T06:18:28.653Z,91.70
2018-02-07T06:20:56.741Z,91.85
2018-02-07T06:23:24.808Z,92.19
2018-02-07T06:25:52.600Z,91.88
2018-02-07T06:28:20.470Z,91.60
2018-02-07T06:30:48.434Z,92.06
2018-02-07T06:33:16.428Z,93.13
2018-02-07T06:35:44.572Z,93.47
2018-02-07T06:38:12.854Z,92.49
2018-02-07T06:40:40.928Z,92.74
2018-02-07T06:43:08.996Z,93.01
2018-02-07T06:45:37.072Z,93.04
2018-02-07T06:48:05.402Z,92.92
2018-02-07T06:50:33.472Z,92.85
2018-02-07T06:53:01.442Z,92.74
2018-02-07T06:55:29.331Z,92.18
2018-02-07T06:57:57.298Z,91.86
2018-02-07T07:00:26.391Z,92.35
2018-02-07T07:02:54.255Z,92.66
2018-02-07T07:05:23.349Z,92.94
2018-02-07T07:07:51.317Z,92.73
2018-02-07T07:10:19.291Z,92.10
2018-02-07T07:12:47.182Z,92.03
2018-02-07T07:15:15.168Z,93.26
2018-02-07T07:17:43.851Z,93.14
2018-02-07T07:20:11.908Z,92.43
2018-02-07T07:22:40.129Z,92.17
2018-02-07T07:25:08.104Z,92.88
2018-02-07T07:27:37.472Z,92.78
2018-02-07T07:30:05.497Z,92.22
2018-02-07T07:32:36.274Z,91.96
2018-02-07T07:35:04.222Z,91.87
2018-02-07T07:37:37.849Z,91.80
2018-02-07T07:40:06.977Z,91.60
2018-02-07T07:42:34.908Z,91.40
2018-02-07T07:45:02.813Z,91.83
2018-02-07T07:47:31.860Z,92.04
2018-02-07T07:49:59.960Z,91.63
2018-02-07T07:52:28.024Z,90.70
2018-02-07T07:54:56.056Z,90.50
2018-02-07T07:57:27.724Z,90.68
2018-02-07T07:59:55.882Z,90.75
2018-02-07T08:02:23.758Z,90.44
2018-02-07T08:04:51.732Z,90.78
2018-02-07T08:07:19.544Z,90.78
2018-02-07T08:09:47.492Z,90.67
2018-02-07T08:12:16.694Z,90.69
2018-02-07T08:14:44.639Z,90.06
2018-02-07T08:17:12.607Z,88.80
2018-02-07T08:19:40.315Z,88.35
2018-02-07T08:22:09.386Z,88.22
2018-02-07T08:24:37.316Z,87.90
2018-02-07T08:27:05.399Z,87.68
2018-02-07T08:29:33.492Z,87.39
2018-02-07T08:32:01.572Z,86.42
2018-02-07T08:34:29.643Z,85.17
2018-02-07T08:36:57.717Z,87.25
2018-02-07T08:39:25.636Z,88.96
2018-02-07T08:41:53.526Z,88.72
2018-02-07T08:44:22.219Z,89.51
2018-02-07T08:46:50.618Z,89.01
2018-02-07T08:49:18.690Z,88.30
2018-02-07T08:51:46.557Z,87.01
2018-02-07T08:54:14.596Z,87.23
2018-02-07T08:56:42.699Z,87.96
2018-02-07T08:59:10.774Z,87.87
2018-02-07T09:01:38.793Z,87.91
2018-02-07T09:04:06.704Z,88.04
2018-02-07T09:06:34.648Z,88.83
2018-02-07T09:09:02.675Z,88.44
2018-02-07T09:11:30.883Z,87.94
2018-02-07T09:13:59.002Z,87.97
2018-02-07T09:16:27.066Z,88.19
2018-02-07T09:18:55.133Z,88.05
2018-02-07T09:21:23.201Z,89.29
2018-02-07T09:23:51.202Z,89.35
2018-02-07T09:26:19.182Z,89.58
2018-02-07T09:28:47.026Z,90.15
2018-02-07T09:31:15.224Z,89.43
2018-02-07T09:33:43.433Z,89.15
2018-02-07T09:36:11.406Z,89.43
2018-02-07T09:38:39.171Z,89.48
2018-02-07T09:41:07.135Z,88.99
2018-02-07T09:43:35.104Z,89.04
2018-02-07T09:46:02.929Z,88.76
2018-02-07T09:48:30.810Z,89.02
2018-02-07T09:50:59.752Z,88.61
2018-02-07T09:53:27.727Z,88.89
2018-02-07T09:55:55.609Z,88.80
2018-02-07T09:58:23.426Z,89.07
2018-02-07T10:00:52.261Z,89.00
2018-02-07T10:03:20.287Z,88.74
2018-02-07T10:05:48.378Z,88.08
2018-02-07T10:08:16.316Z,88.39
2018-02-07T10:10:48.084Z,88.42
2018-02-07T10:13:16.056Z,87.50
2018-02-07T10:15:44.175Z,86.91
2018-02-07T10:18:12.114Z,86.80
2018-02-07T10:20:40.119Z,87.29
2018-02-07T10:23:08.147Z,87.79
2018-02-07T10:25:36.262Z,87.79
2018-02-07T10:28:04.332Z,86.95
2018-02-07T10:30:32.271Z,87.00
2018-02-07T10:33:00.139Z,85.93
2018-02-07T10:35:29.202Z,85.68
2018-02-07T10:37:57.234Z,84.89
2018-02-07T10:40:25.164Z,84.24
2018-02-07T10:42:53.173Z,86.16
2018-02-07T10:45:21.245Z,86.73
2018-02-07T10:47:49.290Z,87.00
2018-02-07T10:50:17.290Z,87.08
2018-02-07T10:52:45.328Z,86.71
2018-02-07T10:55:13.416Z,86.15
2018-02-07T10:57:41.501Z,85.63
2018-02-07T11:00:10.190Z,84.74
2018-02-07T11:02:38.261Z,83.96
2018-02-07T11:05:06.290Z,84.53
2018-02-07T11:07:34.263Z,83.60
2018-02-07T11:10:02.022Z,82.87
2018-02-07T11:12:30.045Z,82.73
2018-02-07T11:14:58.276Z,83.20
2018-02-07T11:17:26.413Z,82.44
2018-02-07T11:19:54.536Z,83.02
2018-02-07T11:22:22.528Z,83.32
2018-02-07T11:24:50.499Z,80.59
2018-02-07T11:27:18.639Z,79.64
2018-02-07T11:29:46.744Z,78.47
2018-02-07T11:32:14.870Z,78.37
2018-02-07T11:34:42.875Z,78.69
2018-02-07T11:37:10.929Z,80.79
2018-02-07T11:39:39.022Z,83.17
2018-02-07T11:42:07.088Z,83.66
2018-02-07T11:44:35.831Z,81.54
2018-02-07T11:47:03.844Z,81.16
2018-02-07T11:49:32.145Z,80.14
2018-02-07T11:52:00.209Z,79.25
2018-02-07T11:54:28.049Z,81.93
2018-02-07T11:56:56.151Z,83.29
2018-02-07T11:59:24.648Z,82.91
2018-02-07T12:01:52.703Z,82.29
2018-02-07T12:04:22.234Z,81.98
2018-02-07T12:06:50.266Z,81.40
2018-02-07T12:09:18.335Z,80.14
2018-02-07T12:11:46.294Z,79.71
2018-02-07T12:14:14.359Z,79.79
2018-02-07T12:16:42.449Z,80.27
2018-02-07T12:19:10.316Z,80.97
2018-02-07T12:21:39.208Z,81.97
2018-02-07T12:24:07.284Z,81.24
2018-02-07T12:26:35.986Z,80.85
2018-02-07T12:29:04.055Z,82.13
2018-02-07T12:31:31.977Z,81.87
2018-02-07T12:33:59.898Z,82.55
2018-02-07T12:36:28.136Z,83.10
2018-02-07T12:38:56.209Z,82.93
2018-02-07T12:41:24.325Z,81.39
2018-02-07T12:43:52.259Z,80.70
2018-02-07T12:46:20.331Z,79.44
2018-02-07T12:48:48.325Z,79.21
2018-02-07T12:51:16.390Z,78.27
2018-02-07T12:53:44.130Z,78.91
2018-02-07T12:56:12.097Z,79.14
2018-02-07T12:58:39.988Z,79.39
2018-02-07T13:01:07.934Z,80.17
2018-02-07T13:03:35.923Z,80.58
2018-02-07T13:06:03.991Z,81.26
2018-02-07T13:08:32.432Z,81.01
2018-02-07T13:11:00.559Z,81.97
2018-02-07T13:13:28.393Z,82.47
2018-02-07T13:15:56.265Z,82.65
2018-02-07T13:18:24.262Z,83.31
2018-02-07T13:20:52.296Z,82.25
2018-02-07T13:23:20.408Z,81.86
2018-02-07T13:25:48.554Z,81.83
2018-02-07T13:28:16.654Z,82.62
2018-02-07T13:30:45.600Z,82.95
2018-02-07T13:33:14.527Z,83.27
2018-02-07T13:35:42.406Z,84.24
2018-02-07T13:38:10.435Z,84.60
2018-02-07T13:40:38.403Z,84.04
2018-02-07T13:43:06.746Z,83.32
2018-02-07T13:45:34.739Z,83.69
2018-02-07T13:48:03.665Z,83.95
2018-02-07T13:50:31.623Z,84.47
2018-02-07T13:52:59.725Z,84.22
2018-02-07T13:55:27.810Z,84.97
2018-02-07T13:57:55.834Z,85.67
2018-02-07T14:00:23.768Z,85.53
2018-02-07T14:02:51.534Z,86.07
2018-02-07T14:05:19.372Z,86.21
2018-02-07T14:07:47.439Z,86.21
2018-02-07T14:10:15.482Z,86.13
2018-02-07T14:12:44.165Z,86.72
2018-02-07T14:15:12.238Z,86.33
2018-02-07T14:17:40.240Z,86.50
2018-02-07T14:20:09.275Z,86.52
2018-02-07T14:22:37.294Z,86.89
2018-02-07T14:25:05.455Z,87.26
2018-02-07T14:27:33.362Z,87.30
2018-02-07T14:30:02.442Z,88.43
2018-02-07T14:32:30.617Z,88.65
2018-02-07T14:34:59.779Z,88.45
2018-02-07T14:37:28.590Z,88.65
2018-02-07T14:39:56.464Z,88.60
2018-02-07T14:42:24.349Z,88.32
2018-02-07T14:44:52.412Z,88.10
2018-02-07T14:47:20.487Z,88.08
2018-02-07T14:49:48.430Z,88.07
2018-02-07T14:52:16.524Z,88.28
2018-02-07T14:54:45.147Z,88.07
2018-02-07T14:57:13.261Z,88.04
2018-02-07T14:59:41.223Z,88.17
2018-02-07T15:02:12.767Z,87.92
2018-02-07T15:04:40.836Z,87.46
2018-02-07T15:07:09.825Z,87.47
2018-02-07T15:09:37.845Z,87.44
2018-02-07T15:12:05.934Z,87.59
2018-02-07T15:14:34.189Z,87.81
2018-02-07T15:17:02.059Z,88.07
2018-02-07T15:19:30.095Z,88.50
2018-02-07T15:21:58.201Z,88.43
2018-02-07T15:24:26.142Z,88.31
2018-02-07T15:26:54.261Z,87.67
2018-02-07T15:29:22.121Z,87.33
2018-02-07T15:31:50.041Z,87.72
2018-02-07T15:34:17.908Z,88.37
2018-02-07T15:36:46.017Z,88.75
2018-02-07T15:39:13.891Z,88.60
2018-02-07T15:41:42.034Z,88.00
2018-02-07T15:44:09.826Z,87.93
2018-02-07T15:46:38.543Z,87.86
2018-02-07T15:49:06.587Z,88.43
2018-02-07T15:51:34.448Z,87.91
2018-02-07T15:54:02.369Z,88.06
2018-02-07T15:56:30.284Z,88.06
2018-02-07T15:58:58.360Z,87.90
2018-02-07T16:01:26.430Z,88.53
2018-02-07T16:03:54.506Z,88.96
2018-02-07T16:06:22.572Z,89.17
2018-02-07T16:08:51.294Z,89.31
2018-02-07T16:11:21.071Z,88.75
2018-02-07T16:13:50.075Z,87.98
2018-02-07T16:16:18.143Z,87.71
2018-02-07T16:18:47.017Z,88.13
2018-02-07T16:21:15.081Z,88.46
2018-02-07T16:23:44.197Z,88.50
2018-02-07T16:26:12.273Z,88.27
2018-02-07T16:28:41.775Z,88.49
2018-02-07T16:31:10.553Z,88.42
2018-02-07T16:33:38.718Z,88.78
2018-02-07T16:36:06.810Z,89.43
2018-02-07T16:38:35.626Z,89.24
2018-02-07T16:41:04.299Z,89.15
2018-02-07T16:43:32.659Z,89.15
2018-02-07T16:46:01.761Z,88.52
2018-02-07T16:48:29.795Z,87.69
2018-02-07T16:50:58.279Z,87.63
2018-02-07T16:53:26.151Z,87.71
2018-02-07T16:55:55.252Z,88.30
2018-02-07T16:58:23.347Z,89.40
2018-02-07T17:00:52.440Z,89.19
2018-02-07T17:03:20.466Z,89.59
2018-02-07T17:05:50.143Z,89.45
2018-02-07T17:08:19.409Z,89.88
2018-02-07T17:10:48.625Z,89.79
2018-02-07T17:13:16.801Z,89.97
2018-02-07T17:15:44.964Z,89.72
2018-02-07T17:18:13.398Z,89.27
2018-02-07T17:20:41.853Z,89.20
2018-02-07T17:23:09.987Z,89.68
2018-02-07T17:25:39.162Z,90.10
2018-02-07T17:28:08.920Z,90.47
2018-02-07T17:30:39.351Z,90.61
2018-02-07T17:33:08.525Z,90.55
2018-02-07T17:35:36.663Z,90.39
2018-02-07T17:38:05.099Z,88.66
2018-02-07T17:40:33.793Z,87.63
2018-02-07T17:43:02.051Z,87.08
2018-02-07T17:45:30.843Z,86.93
2018-02-07T17:47:58.731Z,87.54
2018-02-07T17:50:26.740Z,87.74
2018-02-07T17:52:54.748Z,88.35
2018-02-07T17:55:22.626Z,88.94
2018-02-07T17:57:51.509Z,88.49
2018-02-07T18:00:19.722Z,88.76
2018-02-07T18:02:47.950Z,88.59
2018-02-07T18:05:16.092Z,88.94
2018-02-07T18:07:45.036Z,89.07
2018-02-07T18:10:12.882Z,89.05
2018-02-07T18:12:41.157Z,89.13
2018-02-07T18:15:09.569Z,89.87
2018-02-07T18:17:39.470Z,89.08
2018-02-07T18:20:08.462Z,88.16
2018-02-07T18:22:37.823Z,86.83
2018-02-07T18:25:06.569Z,87.17
2018-02-07T18:27:34.623Z,87.25
2018-02-07T18:30:02.561Z,87.16
2018-02-07T18:32:31.154Z,86.87
2018-02-07T18:34:59.328Z,87.68
2018-02-07T18:37:27.707Z,87.67
2018-02-07T18:39:55.723Z,87.43
2018-02-07T18:42:23.804Z,87.48
2018-02-07T18:44:52.234Z,87.50
2018-02-07T18:47:20.323Z,87.41
2018-02-07T18:49:48.479Z,87.65
2018-02-07T18:52:16.792Z,87.64
2018-02-07T18:54:44.846Z,87.72
2018-02-07T18:57:13.320Z,88.38
2018-02-07T18:59:41.225Z,88.10
2018-02-07T19:02:09.453Z,88.67
2018-02-07T19:04:37.531Z,88.98
2018-02-07T19:07:05.616Z,88.77
2018-02-07T19:09:34.484Z,88.59
2018-02-07T19:12:02.957Z,88.90
2018-02-07T19:14:31.938Z,89.13
2018-02-07T19:17:00.332Z,89.03
2018-02-07T19:19:28.174Z,89.09
2018-02-07T19:21:56.330Z,89.99
2018-02-07T19:24:24.655Z,90.14
2018-02-07T19:26:53.415Z,90.12
2018-02-07T19:29:22.770Z,89.53
2018-02-07T19:31:53.625Z,89.13
2018-02-07T19:34:21.677Z,89.23
2018-02-07T19:36:49.747Z,86.92
2018-02-07T19:39:17.822Z,86.73
2018-02-07T19:41:46.076Z,86.70
2018-02-07T19:44:15.494Z,87.10
2018-02-07T19:46:43.576Z,87.13
2018-02-07T19:49:18.463Z,88.15
2018-02-07T19:51:46.840Z,87.48
2018-02-07T19:54:16.579Z,87.98
2018-02-07T19:56:44.773Z,88.31
2018-02-07T19:59:14.174Z,88.46
2018-02-07T20:01:44.972Z,88.56
2018-02-07T20:04:13.157Z,88.38
2018-02-07T20:06:41.719Z,88.71
2018-02-07T20:09:12.512Z,88.48
2018-02-07T20:11:41.080Z,88.23
2018-02-07T20:14:09.259Z,88.11
2018-02-07T20:16:38.314Z,88.23
2018-02-07T20:19:09.777Z,88.37
2018-02-07T20:21:38.500Z,88.67
2018-02-07T20:24:06.398Z,88.68
2018-02-07T20:26:34.381Z,88.76
2018-02-07T20:29:03.328Z,89.53
2018-02-07T20:31:32.017Z,89.29
2018-02-07T20:33:59.963Z,89.14
2018-02-07T20:36:28.574Z,89.84
2018-02-07T20:38:58.040Z,90.03
2018-02-07T20:41:26.144Z,89.79
2018-02-07T20:43:54.316Z,89.79
2018-02-07T20:46:23.414Z,89.83
2018-02-07T20:48:51.315Z,89.65
2018-02-07T20:51:20.271Z,89.26
2018-02-07T20:53:48.193Z,89.42
2018-02-07T20:56:16.313Z,89.94
2018-02-07T20:58:44.333Z,89.44
2018-02-07T21:01:12.348Z,89.42
2018-02-07T21:03:40.237Z,89.56
2018-02-07T21:06:08.398Z,89.73
2018-02-07T21:08:36.225Z,89.69
2018-02-07T21:11:04.412Z,89.39
2018-02-07T21:13:32.408Z,89.34
2018-02-07T21:16:00.487Z,89.14
2018-02-07T21:18:28.612Z,89.34
2018-02-07T21:20:56.479Z,89.06
2018-02-07T21:23:25.593Z,89.20
2018-02-07T21:25:55.065Z,89.39
2018-02-07T21:28:23.094Z,89.82
2018-02-07T21:30:51.050Z,90.01
2018-02-07T21:33:18.953Z,89.76
2018-02-07T21:35:47.311Z,89.70
2018-02-07T21:38:15.482Z,89.55
2018-02-07T21:40:43.448Z,89.88
2018-02-07T21:43:12.387Z,89.97
2018-02-07T21:45:41.095Z,89.93
2018-02-07T21:48:09.611Z,90.00
2018-02-07T21:50:38.508Z,89.82
2018-02-07T21:53:06.453Z,89.86
2018-02-07T21:55:34.545Z,89.52
2018-02-07T21:58:02.809Z,90.18
2018-02-07T22:00:30.897Z,90.80
2018-02-07T22:03:00.458Z,90.61
2018-02-07T22:05:28.558Z,90.40
2018-02-07T22:07:56.334Z,90.37
2018-02-07T22:10:24.437Z,90.38
2018-02-07T22:12:53.283Z,90.21
2018-02-07T22:15:21.462Z,90.31
2018-02-07T22:17:50.019Z,90.33
2018-02-07T22:20:18.066Z,90.41
2018-02-07T22:22:46.919Z,90.52
2018-02-07T22:25:14.948Z,90.37
2018-02-07T22:27:43.008Z,90.38
2018-02-07T22:30:11.706Z,90.51
2018-02-07T22:32:39.633Z,90.49
2018-02-07T22:35:07.613Z,91.37
2018-02-07T22:37:35.431Z,91.76
2018-02-07T22:40:03.628Z,91.74
2018-02-07T22:42:31.689Z,91.77
2018-02-07T22:44:59.755Z,91.74
2018-02-07T22:47:27.819Z,91.80
2018-02-07T22:49:55.940Z,91.56
2018-02-07T22:52:23.935Z,91.68
2018-02-07T22:54:52.061Z,91.72
2018-02-07T22:57:20.139Z,91.71
2018-02-07T22:59:48.081Z,91.34
2018-02-07T23:02:16.152Z,91.27
2018-02-07T23:04:43.963Z,91.22
2018-02-07T23:07:12.807Z,91.06
2018-02-07T23:09:41.699Z,90.82
2018-02-07T23:12:09.541Z,90.65
2018-02-07T23:14:37.364Z,90.72
2018-02-07T23:17:05.273Z,90.63
2018-02-07T23:19:34.623Z,90.61
2018-02-07T23:22:02.644Z,90.60
2018-02-07T23:24:30.823Z,90.53
2018-02-07T23:26:58.835Z,90.53
2018-02-07T23:29:27.706Z,90.90
2018-02-07T23:31:55.568Z,91.01
2018-02-07T23:34:23.465Z,91.23
2018-02-07T23:36:51.535Z,90.91
2018-02-07T23:39:20.151Z,90.74
2018-02-07T23:41:49.114Z,91.12
2018-02-07T23:44:17.034Z,90.71
2018-02-07T23:46:44.906Z,90.31
2018-02-07T23:49:12.793Z,90.25
2018-02-07T23:51:40.685Z,91.71
2018-02-07T23:54:08.552Z,91.96
2018-02-07T23:56:36.313Z,91.73
2018-02-07T23:59:04.337Z,91.11
